createdAt,value
2018-11-23T00:01:45.362Z,36.23
2018-11-23T00:04:12.805Z,36.03
2018-11-23T00:06:40.227Z,39.20
2018-11-23T00:09:07.674Z,37.30
2018-11-23T00:11:35.062Z,38.50
2018-11-23T00:14:02.471Z,41.10
2018-11-23T00:16:29.842Z,39.90
2018-11-23T00:18:57.306Z,36.60
2018-11-23T00:21:24.677Z,38.33
2018-11-23T00:23:52.106Z,38.30
2018-11-23T00:26:19.498Z,38.83
2018-11-23T00:28:46.894Z,40.97
2018-11-23T00:31:14.357Z,38.43
2018-11-23T00:33:41.774Z,42.67
2018-11-23T00:36:09.127Z,39.60
2018-11-23T00:38:36.574Z,41.17
2018-11-23T00:41:04.515Z,37.60
2018-11-23T00:43:31.902Z,41.20
2018-11-23T00:45:59.299Z,38.33
2018-11-23T00:48:26.739Z,40.83
2018-11-23T00:50:54.119Z,39.10
2018-11-23T00:53:21.529Z,37.60
2018-11-23T00:55:48.950Z,41.27
2018-11-23T00:58:16.319Z,37.57
2018-11-23T01:00:43.843Z,38.13
2018-11-23T01:03:11.289Z,38.30
2018-11-23T01:05:38.775Z,38.23
2018-11-23T01:08:06.211Z,39.90
2018-11-23T01:10:33.704Z,35.23
2018-11-23T01:13:01.183Z,36.97
2018-11-23T01:15:28.675Z,38.23
2018-11-23T01:17:56.074Z,39.47
2018-11-23T01:20:24.881Z,37.97
2018-11-23T01:22:52.915Z,37.77
2018-11-23T01:25:21.322Z,38.37
2018-11-23T01:27:49.889Z,38.37
2018-11-23T01:30:24.719Z,37.70
2018-11-23T01:32:52.149Z,38.47
2018-11-23T01:35:19.535Z,37.73
2018-11-23T01:37:47.013Z,38.80
2018-11-23T01:40:16.911Z,37.60
2018-11-23T01:42:44.659Z,38.17
2018-11-23T01:45:12.689Z,36.57
2018-11-23T01:47:40.120Z,36.97
2018-11-23T01:50:09.867Z,38.10
2018-11-23T01:52:37.280Z,37.63
2018-11-23T01:55:06.218Z,35.93
2018-11-23T01:57:33.632Z,36.60
2018-11-23T02:00:01.016Z,38.93
2018-11-23T02:02:28.450Z,37.90
2018-11-23T02:04:55.888Z,36.23
2018-11-23T02:07:23.515Z,37.80
2018-11-23T02:09:50.871Z,38.47
2018-11-23T02:12:18.319Z,36.90
2018-11-23T02:14:45.736Z,38.27
2018-11-23T02:17:13.100Z,37.37
2018-11-23T02:19:40.550Z,39.30
2018-11-23T02:22:07.963Z,38.87
2018-11-23T02:24:35.424Z,37.97
2018-11-23T02:27:02.838Z,38.03
2018-11-23T02:29:30.207Z,39.00
2018-11-23T02:31:57.603Z,39.60
2018-11-23T02:34:25.008Z,38.80
2018-11-23T02:36:52.436Z,40.77
2018-11-23T02:39:19.892Z,38.70
2018-11-23T02:41:47.254Z,38.70
2018-11-23T02:44:14.718Z,37.83
2018-11-23T02:46:42.121Z,38.13
2018-11-23T02:49:09.517Z,38.80
2018-11-23T02:51:36.941Z,38.27
2018-11-23T02:54:04.430Z,39.33
2018-11-23T02:56:39.700Z,39.70
2018-11-23T02:59:07.154Z,35.93
2018-11-23T03:01:34.534Z,39.23
2018-11-23T03:04:01.929Z,38.47
2018-11-23T03:06:29.335Z,38.30
2018-11-23T03:08:56.765Z,37.17
2018-11-23T03:11:24.146Z,37.77
2018-11-23T03:13:51.532Z,39.50
2018-11-23T03:16:18.919Z,37.50
2018-11-23T03:18:46.299Z,38.70
2018-11-23T03:21:13.714Z,40.27
2018-11-23T03:23:41.054Z,38.63
2018-11-23T03:26:08.443Z,38.87
2018-11-23T03:28:35.829Z,37.17
2018-11-23T03:31:03.251Z,37.57
2018-11-23T03:33:30.618Z,38.57
2018-11-23T03:35:58.003Z,36.50
2018-11-23T03:38:25.359Z,37.83
2018-11-23T03:40:52.808Z,37.40
2018-11-23T03:43:20.199Z,36.03
2018-11-23T03:45:47.555Z,38.73
2018-11-23T03:48:14.975Z,35.03
2018-11-23T03:50:42.390Z,36.60
2018-11-23T03:53:09.747Z,37.30
2018-11-23T03:55:37.162Z,36.77
2018-11-23T03:58:04.906Z,36.27
2018-11-23T04:00:32.308Z,35.60
2018-11-23T04:02:59.734Z,36.13
2018-11-23T04:05:27.115Z,35.03
2018-11-23T04:07:54.560Z,35.37
2018-11-23T04:10:21.916Z,33.83
2018-11-23T04:12:49.331Z,33.97
2018-11-23T04:15:16.863Z,33.90
2018-11-23T04:17:44.222Z,33.40
2018-11-23T04:20:13.031Z,32.07
2018-11-23T04:22:41.141Z,34.30
2018-11-23T04:25:08.765Z,31.57
2018-11-23T04:27:36.194Z,33.43
2018-11-23T04:30:04.517Z,31.07
2018-11-23T04:32:31.937Z,32.50
2018-11-23T04:34:59.340Z,31.30
2018-11-23T04:37:26.765Z,31.80
2018-11-23T04:39:54.122Z,28.83
2018-11-23T04:42:21.550Z,30.70
2018-11-23T04:44:48.921Z,31.87
2018-11-23T04:47:16.336Z,31.13
2018-11-23T04:49:43.708Z,30.43
2018-11-23T04:52:11.110Z,30.83
2018-11-23T04:54:38.539Z,33.20
2018-11-23T04:57:06.069Z,28.93
2018-11-23T04:59:33.476Z,30.70
2018-11-23T05:02:00.931Z,29.00
2018-11-23T05:04:28.348Z,30.93
2018-11-23T05:06:55.872Z,29.97
2018-11-23T05:09:23.280Z,31.93
2018-11-23T05:11:50.672Z,31.07
2018-11-23T05:14:18.116Z,31.27
2018-11-23T05:16:45.548Z,32.40
2018-11-23T05:19:12.995Z,30.50
2018-11-23T05:21:40.409Z,31.00
2018-11-23T05:24:07.855Z,30.10
2018-11-23T05:26:35.294Z,30.47
2018-11-23T05:29:02.736Z,30.20
2018-11-23T05:31:30.140Z,30.50
2018-11-23T05:33:57.589Z,28.47
2018-11-23T05:36:25.020Z,29.83
2018-11-23T05:38:52.447Z,30.33
2018-11-23T05:41:19.855Z,30.33
2018-11-23T05:43:47.316Z,30.93
2018-11-23T05:46:14.700Z,29.07
2018-11-23T05:48:42.157Z,31.33
2018-11-23T05:51:09.946Z,30.87
2018-11-23T05:53:37.479Z,29.27
2018-11-23T05:56:05.207Z,30.77
2018-11-23T05:58:32.664Z,29.50
2018-11-23T06:01:00.187Z,30.40
2018-11-23T06:03:27.636Z,29.77
2018-11-23T06:05:55.045Z,30.40
2018-11-23T06:08:22.491Z,29.40
2018-11-23T06:10:49.888Z,28.13
2018-11-23T06:13:17.336Z,28.60
2018-11-23T06:15:45.849Z,28.10
2018-11-23T06:18:12.223Z,29.23
2018-11-23T06:20:39.671Z,30.57
2018-11-23T06:23:07.407Z,30.00
2018-11-23T06:25:37.774Z,28.33
2018-11-23T06:28:05.378Z,28.77
2018-11-23T06:30:32.774Z,28.57
2018-11-23T06:33:11.966Z,31.47
2018-11-23T06:35:39.391Z,28.37
2018-11-23T06:38:06.836Z,28.30
2018-11-23T06:40:34.263Z,29.70
2018-11-23T06:43:01.719Z,30.00
2018-11-23T06:45:30.555Z,30.30
2018-11-23T06:47:58.012Z,29.50
2018-11-23T06:50:25.437Z,28.60
2018-11-23T06:52:52.825Z,31.77
2018-11-23T06:55:21.169Z,30.00
2018-11-23T06:57:48.613Z,31.47
2018-11-23T07:00:23.087Z,29.80
2018-11-23T07:02:50.474Z,29.20
2018-11-23T07:05:17.923Z,29.87
2018-11-23T07:07:45.317Z,28.97
2018-11-23T07:10:12.774Z,28.83
2018-11-23T07:12:40.190Z,30.70
2018-11-23T07:15:10.187Z,29.30
2018-11-23T07:17:37.903Z,29.80
2018-11-23T07:20:07.293Z,29.00
2018-11-23T07:22:35.688Z,29.07
2018-11-23T07:25:03.695Z,29.27
2018-11-23T07:27:31.081Z,28.80
2018-11-23T07:29:58.529Z,30.57
2018-11-23T07:32:25.987Z,30.97
2018-11-23T07:34:53.493Z,29.30
2018-11-23T07:37:20.872Z,30.07
2018-11-23T07:39:59.977Z,31.13
2018-11-23T07:42:28.860Z,30.97
2018-11-23T07:44:56.306Z,30.37
2018-11-23T07:47:23.707Z,28.87
2018-11-23T07:49:51.194Z,27.93
2018-11-23T07:52:18.621Z,29.40
2018-11-23T07:54:46.056Z,30.37
2018-11-23T07:57:13.509Z,29.33
2018-11-23T07:59:40.943Z,30.20
2018-11-23T08:02:09.479Z,30.30
2018-11-23T08:04:37.680Z,28.60
2018-11-23T08:07:05.831Z,28.90
2018-11-23T08:09:33.248Z,31.57
2018-11-23T08:12:00.638Z,29.00
2018-11-23T08:14:28.092Z,29.43
2018-11-23T08:16:55.500Z,31.10
2018-11-23T08:19:23.017Z,29.60
2018-11-23T08:21:50.464Z,28.60
2018-11-23T08:24:17.973Z,27.30
2018-11-23T08:26:45.371Z,30.07
2018-11-23T08:29:12.811Z,27.80
2018-11-23T08:31:40.256Z,27.90
2018-11-23T08:34:07.853Z,32.23
2018-11-23T08:36:35.305Z,29.40
2018-11-23T08:39:07.529Z,30.50
2018-11-23T08:41:35.023Z,28.80
2018-11-23T08:44:02.674Z,29.63
2018-11-23T08:46:30.104Z,30.87
2018-11-23T08:48:57.563Z,28.80
2018-11-23T08:51:24.999Z,28.80
2018-11-23T08:53:52.398Z,30.20
2018-11-23T08:56:19.903Z,30.03
2018-11-23T08:58:47.312Z,29.23
2018-11-23T09:01:14.748Z,29.60
2018-11-23T09:03:42.152Z,32.10
2018-11-23T09:06:09.590Z,32.27
2018-11-23T09:08:37.119Z,28.33
2018-11-23T09:11:05.188Z,30.97
2018-11-23T09:13:32.591Z,30.77
2018-11-23T09:16:00.040Z,31.40
2018-11-23T09:18:27.455Z,30.50
2018-11-23T09:20:54.900Z,32.57
2018-11-23T09:23:22.473Z,30.23
2018-11-23T09:25:49.916Z,31.63
2018-11-23T09:28:17.323Z,33.53
2018-11-23T09:30:44.774Z,30.90
2018-11-23T09:33:12.155Z,31.47
2018-11-23T09:35:39.635Z,33.03
2018-11-23T09:38:07.128Z,30.63
2018-11-23T09:40:34.563Z,32.60
2018-11-23T09:43:01.957Z,29.67
2018-11-23T09:45:31.061Z,31.03
2018-11-23T09:47:59.913Z,29.87
2018-11-23T09:50:29.155Z,30.37
2018-11-23T09:52:57.882Z,33.57
2018-11-23T09:55:27.317Z,29.97
2018-11-23T09:57:55.269Z,32.23
2018-11-23T10:00:24.009Z,32.17
2018-11-23T10:02:52.537Z,31.97
2018-11-23T10:05:20.451Z,32.87
2018-11-23T10:07:49.396Z,32.40
2018-11-23T10:10:17.828Z,33.97
2018-11-23T10:12:45.250Z,33.17
2018-11-23T10:15:14.221Z,33.63
2018-11-23T10:17:41.843Z,34.20
2018-11-23T10:20:11.692Z,30.93
2018-11-23T10:22:39.145Z,31.67
2018-11-23T10:25:08.050Z,30.93
2018-11-23T10:27:35.528Z,33.83
2018-11-23T10:30:11.051Z,31.57
2018-11-23T10:32:38.492Z,34.03
2018-11-23T10:35:06.904Z,35.87
2018-11-23T10:37:34.344Z,34.70
2018-11-23T10:40:01.794Z,33.03
2018-11-23T10:42:29.244Z,34.80
2018-11-23T10:44:56.642Z,32.80
2018-11-23T10:47:24.173Z,33.53
2018-11-23T10:49:51.581Z,34.00
2018-11-23T10:52:19.143Z,34.20
2018-11-23T10:54:46.597Z,33.87
2018-11-23T10:57:14.043Z,32.93
2018-11-23T10:59:41.425Z,33.13
2018-11-23T11:02:14.559Z,33.83
2018-11-23T11:04:47.667Z,35.30
2018-11-23T11:07:15.135Z,33.50
2018-11-23T11:09:42.535Z,33.60
2018-11-23T11:12:10.070Z,34.73
2018-11-23T11:14:37.483Z,31.93
2018-11-23T11:17:05.064Z,35.90
2018-11-23T11:19:32.584Z,33.50
2018-11-23T11:21:59.991Z,35.07
2018-11-23T11:24:27.424Z,33.83
2018-11-23T11:26:54.824Z,35.23
2018-11-23T11:29:22.294Z,33.53
2018-11-23T11:31:49.679Z,35.70
2018-11-23T11:34:17.143Z,33.40
2018-11-23T11:36:44.723Z,33.63
2018-11-23T11:39:12.855Z,36.07
2018-11-23T11:41:40.459Z,33.00
2018-11-23T11:44:07.888Z,34.47
2018-11-23T11:46:35.286Z,35.40
2018-11-23T11:49:02.760Z,34.23
2018-11-23T11:51:30.238Z,35.40
2018-11-23T11:53:57.647Z,34.80
2018-11-23T11:56:25.107Z,35.43
2018-11-23T11:58:52.513Z,35.13
2018-11-23T12:01:20.816Z,34.20
2018-11-23T12:03:48.263Z,37.07
2018-11-23T12:06:15.648Z,33.53
2018-11-23T12:08:43.132Z,33.33
2018-11-23T12:11:10.528Z,36.67
2018-11-23T12:13:37.980Z,33.70
2018-11-23T12:16:05.405Z,34.83
2018-11-23T12:18:32.806Z,37.17
2018-11-23T12:21:00.364Z,36.20
2018-11-23T12:23:27.808Z,35.83
2018-11-23T12:25:55.269Z,38.20
2018-11-23T12:28:22.695Z,35.30
2018-11-23T12:30:50.091Z,38.50
2018-11-23T12:33:17.564Z,34.80
2018-11-23T12:35:44.992Z,35.53
2018-11-23T12:38:12.492Z,34.17
2018-11-23T12:40:39.994Z,35.00
2018-11-23T12:43:07.439Z,35.97
2018-11-23T12:45:34.887Z,38.80
2018-11-23T12:48:02.363Z,36.63
2018-11-23T12:50:29.837Z,35.33
2018-11-23T12:52:57.224Z,37.50
2018-11-23T12:55:24.683Z,35.67
2018-11-23T12:57:52.101Z,37.10
2018-11-23T13:00:27.384Z,38.30
2018-11-23T13:03:01.272Z,34.80
2018-11-23T13:05:29.676Z,35.53
2018-11-23T13:07:58.495Z,33.90
2018-11-23T13:10:26.495Z,36.20
2018-11-23T13:12:54.770Z,37.63
2018-11-23T13:15:22.343Z,38.33
2018-11-23T13:17:49.814Z,38.60
2018-11-23T13:20:17.235Z,39.03
2018-11-23T13:22:44.815Z,38.40
2018-11-23T13:25:14.583Z,39.17
2018-11-23T13:27:42.036Z,38.80
2018-11-23T13:30:20.694Z,39.17
2018-11-23T13:32:48.426Z,38.30
2018-11-23T13:35:16.917Z,36.83
2018-11-23T13:37:44.397Z,36.80
2018-11-23T13:40:14.068Z,39.70
2018-11-23T13:42:41.649Z,38.33
2018-11-23T13:45:10.978Z,40.23
2018-11-23T13:47:38.464Z,37.93
2018-11-23T13:50:07.791Z,39.70
2018-11-23T13:52:35.245Z,41.57
2018-11-23T13:55:02.952Z,40.00
2018-11-23T13:57:30.333Z,38.67
2018-11-23T13:59:57.768Z,40.43
2018-11-23T14:02:25.180Z,41.07
2018-11-23T14:04:52.628Z,39.40
2018-11-23T14:07:20.291Z,38.40
2018-11-23T14:09:47.745Z,38.97
2018-11-23T14:12:15.196Z,39.17
2018-11-23T14:14:42.705Z,39.53
2018-11-23T14:17:10.112Z,40.63
2018-11-23T14:19:37.567Z,39.50
2018-11-23T14:22:05.246Z,38.80
2018-11-23T14:24:32.716Z,39.83
2018-11-23T14:27:00.264Z,40.80
2018-11-23T14:29:27.723Z,38.17
2018-11-23T14:31:55.112Z,40.83
2018-11-23T14:34:22.551Z,40.97
2018-11-23T14:36:49.988Z,39.73
2018-11-23T14:39:17.442Z,41.93
2018-11-23T14:41:44.862Z,41.20
2018-11-23T14:44:12.325Z,42.27
2018-11-23T14:46:39.804Z,39.83
2018-11-23T14:49:07.277Z,39.27
2018-11-23T14:51:34.732Z,41.50
2018-11-23T14:54:02.205Z,39.23
2018-11-23T14:56:29.628Z,42.20
2018-11-23T14:58:57.094Z,41.70
2018-11-23T15:01:24.897Z,40.00
2018-11-23T15:03:52.415Z,38.60
2018-11-23T15:06:19.855Z,39.90
2018-11-23T15:08:47.328Z,41.67
2018-11-23T15:11:14.761Z,41.97
2018-11-23T15:13:42.243Z,42.90
2018-11-23T15:16:09.651Z,42.97
2018-11-23T15:18:37.064Z,41.87
2018-11-23T15:21:05.167Z,42.37
2018-11-23T15:23:32.588Z,43.23
2018-11-23T15:26:00.050Z,39.70
2018-11-23T15:28:27.521Z,41.73
2018-11-23T15:30:54.962Z,42.93
2018-11-23T15:33:22.424Z,44.60
2018-11-23T15:35:49.816Z,41.30
2018-11-23T15:38:19.168Z,45.33
2018-11-23T15:40:46.734Z,42.73
2018-11-23T15:43:15.251Z,42.27
2018-11-23T15:45:42.711Z,42.33
2018-11-23T15:48:10.649Z,42.73
2018-11-23T15:50:39.160Z,43.83
2018-11-23T15:53:08.161Z,42.80
2018-11-23T15:55:36.361Z,45.00
2018-11-23T15:58:06.150Z,45.50
2018-11-23T16:00:35.958Z,43.90
2018-11-23T16:03:03.877Z,46.60
2018-11-23T16:05:31.317Z,42.80
2018-11-23T16:08:01.400Z,46.13
2018-11-23T16:10:30.355Z,44.83
2018-11-23T16:12:59.009Z,46.90
2018-11-23T16:15:27.051Z,44.03
2018-11-23T16:17:54.873Z,44.10
2018-11-23T16:20:25.034Z,44.97
2018-11-23T16:22:53.933Z,45.93
2018-11-23T16:25:21.447Z,42.70
2018-11-23T16:27:50.457Z,43.50
2018-11-23T16:30:20.226Z,44.90
2018-11-23T16:32:48.878Z,47.00
2018-11-23T16:35:17.866Z,44.13
2018-11-23T16:37:45.450Z,45.03
2018-11-23T16:40:14.294Z,45.20
2018-11-23T16:42:41.801Z,44.10
2018-11-23T16:45:13.128Z,46.57
2018-11-23T16:47:43.197Z,44.77
2018-11-23T16:50:11.109Z,46.83
2018-11-23T16:52:38.928Z,45.00
2018-11-23T16:55:07.903Z,45.93
2018-11-23T16:57:35.318Z,45.87
2018-11-23T17:00:03.120Z,47.00
2018-11-23T17:02:30.699Z,46.00
2018-11-23T17:04:58.196Z,46.97
2018-11-23T17:07:25.655Z,45.70
2018-11-23T17:09:53.108Z,45.90
2018-11-23T17:12:20.501Z,45.30
2018-11-23T17:14:47.989Z,44.53
2018-11-23T17:17:15.496Z,49.10
2018-11-23T17:19:42.967Z,47.83
2018-11-23T17:22:10.432Z,45.10
2018-11-23T17:24:37.842Z,47.20
2018-11-23T17:27:05.505Z,45.90
2018-11-23T17:29:34.041Z,47.10
2018-11-23T17:32:00.700Z,46.83
2018-11-23T17:34:28.143Z,49.07
2018-11-23T17:36:55.550Z,46.27
2018-11-23T17:39:22.994Z,47.37
2018-11-23T17:41:50.557Z,46.57
2018-11-23T17:44:17.961Z,46.20
2018-11-23T17:46:45.434Z,46.70
2018-11-23T17:49:12.842Z,45.93
2018-11-23T17:51:40.294Z,47.87
2018-11-23T17:54:07.703Z,47.90
2018-11-23T17:56:35.448Z,46.27
2018-11-23T17:59:02.951Z,48.77
2018-11-23T18:01:30.497Z,46.73
2018-11-23T18:03:57.905Z,46.47
2018-11-23T18:06:25.354Z,47.20
2018-11-23T18:08:52.784Z,48.20
2018-11-23T18:11:20.241Z,45.50
2018-11-23T18:13:47.819Z,46.60
2018-11-23T18:16:15.241Z,47.77
2018-11-23T18:18:42.702Z,44.87
2018-11-23T18:21:10.244Z,46.37
2018-11-23T18:23:37.704Z,48.20
2018-11-23T18:26:06.183Z,45.33
2018-11-23T18:28:33.616Z,43.80
2018-11-23T18:31:01.054Z,45.53
2018-11-23T18:33:28.446Z,44.77
2018-11-23T18:35:56.057Z,47.50
2018-11-23T18:38:23.502Z,46.50
2018-11-23T18:40:51.104Z,45.60
2018-11-23T18:43:18.627Z,44.60
2018-11-23T18:45:46.079Z,45.80
2018-11-23T18:48:13.500Z,45.20
2018-11-23T18:50:41.007Z,45.57
2018-11-23T18:53:08.447Z,46.93
2018-11-23T18:55:35.880Z,46.03
2018-11-23T18:58:03.507Z,54.35
2018-11-23T19:00:30.901Z,46.87
2018-11-23T19:02:58.350Z,47.07
2018-11-23T19:05:27.543Z,46.87
2018-11-23T19:07:55.047Z,46.67
2018-11-23T19:10:22.539Z,48.03
2018-11-23T19:12:49.977Z,46.40
2018-11-23T19:15:25.261Z,44.60
2018-11-23T19:17:45.595Z,45.43
2018-11-23T19:20:15.942Z,45.33
2018-11-23T19:22:44.607Z,47.97
2018-11-23T19:25:12.055Z,47.27
2018-11-23T19:27:39.442Z,46.20
2018-11-23T19:30:09.492Z,46.37
2018-11-23T19:32:36.935Z,47.17
2018-11-23T19:35:05.028Z,48.90
2018-11-23T19:37:32.556Z,45.73
2018-11-23T19:40:00.036Z,43.10
2018-11-23T19:42:27.593Z,45.60
2018-11-23T19:44:55.152Z,45.50
2018-11-23T19:47:22.617Z,44.97
2018-11-23T19:49:50.010Z,45.97
2018-11-23T19:52:17.463Z,47.03
2018-11-23T19:54:44.847Z,48.07
2018-11-23T19:57:12.328Z,46.97
2018-11-23T19:59:40.639Z,45.97
2018-11-23T20:02:08.054Z,46.27
2018-11-23T20:04:35.530Z,48.70
2018-11-23T20:07:02.981Z,47.57
2018-11-23T20:09:30.384Z,46.00
2018-11-23T20:11:57.876Z,49.30
2018-11-23T20:14:25.379Z,45.30
2018-11-23T20:16:52.903Z,44.57
2018-11-23T20:19:20.401Z,43.73
2018-11-23T20:21:47.855Z,46.43
2018-11-23T20:24:15.267Z,46.10
2018-11-23T20:26:42.773Z,46.97
2018-11-23T20:29:10.236Z,46.13
2018-11-23T20:31:37.736Z,48.37
2018-11-23T20:34:05.316Z,50.10
2018-11-23T20:36:32.811Z,46.53
2018-11-23T20:39:00.224Z,44.97
2018-11-23T20:41:27.702Z,44.20
2018-11-23T20:43:55.108Z,49.80
2018-11-23T20:46:22.556Z,47.10
2018-11-23T20:48:50.682Z,45.80
2018-11-23T20:51:18.167Z,46.97
2018-11-23T20:53:45.636Z,47.37
2018-11-23T20:56:13.092Z,49.30
2018-11-23T20:58:40.525Z,46.70
2018-11-23T21:01:07.977Z,46.23
2018-11-23T21:03:35.489Z,46.47
2018-11-23T21:06:03.016Z,44.40
2018-11-23T21:08:30.424Z,49.00
2018-11-23T21:10:57.893Z,46.97
2018-11-23T21:13:25.455Z,45.40
2018-11-23T21:15:52.909Z,46.90
2018-11-23T21:18:20.331Z,47.47
2018-11-23T21:20:47.936Z,47.30
2018-11-23T21:23:15.585Z,46.10
2018-11-23T21:25:43.041Z,49.40
2018-11-23T21:28:10.512Z,46.90
2018-11-23T21:30:39.708Z,48.17
2018-11-23T21:33:07.192Z,52.30
2018-11-23T21:35:34.729Z,49.57
2018-11-23T21:38:02.180Z,49.20
2018-11-23T21:40:29.800Z,44.57
2018-11-23T21:42:57.501Z,46.43
2018-11-23T21:45:25.004Z,45.17
2018-11-23T21:47:52.436Z,45.37
2018-11-23T21:50:25.111Z,46.07
2018-11-23T21:52:47.991Z,47.43
2018-11-23T21:55:16.651Z,44.70
2018-11-23T21:57:44.131Z,46.37
2018-11-23T22:00:13.243Z,46.93
2018-11-23T22:02:40.728Z,46.27
2018-11-23T22:05:08.508Z,45.20
2018-11-23T22:07:36.114Z,46.63
2018-11-23T22:10:07.080Z,47.70
2018-11-23T22:12:34.585Z,46.83
2018-11-23T22:15:01.998Z,47.47
2018-11-23T22:17:29.481Z,49.73
2018-11-23T22:19:56.899Z,45.60
2018-11-23T22:22:24.385Z,48.13
2018-11-23T22:24:51.889Z,45.83
2018-11-23T22:27:19.375Z,44.83
2018-11-23T22:29:46.813Z,46.30
2018-11-23T22:32:14.344Z,45.80
2018-11-23T22:34:41.796Z,45.33
2018-11-23T22:37:09.199Z,43.83
2018-11-23T22:39:36.641Z,44.37
2018-11-23T22:42:04.835Z,44.77
2018-11-23T22:44:32.287Z,46.83
2018-11-23T22:46:59.814Z,47.47
2018-11-23T22:49:27.267Z,46.33
2018-11-23T22:51:54.689Z,46.20
2018-11-23T22:54:22.140Z,44.60
2018-11-23T22:56:49.652Z,46.63
2018-11-23T22:59:17.372Z,45.80
2018-11-23T23:01:44.851Z,46.03
2018-11-23T23:04:12.331Z,46.13
2018-11-23T23:06:39.815Z,44.00
2018-11-23T23:09:08.523Z,45.83
2018-11-23T23:11:36.560Z,44.20
2018-11-23T23:14:04.132Z,46.10
2018-11-23T23:16:31.561Z,43.40
2018-11-23T23:18:59.185Z,44.83
2018-11-23T23:21:26.633Z,45.47
2018-11-23T23:23:54.250Z,45.47
2018-11-23T23:26:21.655Z,44.40
2018-11-23T23:28:49.117Z,44.70
2018-11-23T23:31:16.609Z,45.85
2018-11-23T23:33:44.032Z,46.47
2018-11-23T23:36:11.477Z,45.93
2018-11-23T23:38:39.015Z,46.13
2018-11-23T23:41:06.478Z,45.23
2018-11-23T23:43:33.920Z,43.90
2018-11-23T23:46:01.352Z,44.03
2018-11-23T23:48:29.383Z,43.40
2018-11-23T23:50:56.912Z,42.17
2018-11-23T23:53:24.327Z,43.37
2018-11-23T23:55:51.769Z,43.30
2018-11-23T23:58:19.175Z,43.43
